sensor_id;sensor_type;location;lat;lon;timestamp;temperature;humidity
26599;DHT22;14240;51.064;16.612;2022-08-21T00:01:07;19.60;99.90
26599;DHT22;14240;51.064;16.612;2022-08-21T00:03:35;19.60;99.90
26599;DHT22;14240;51.064;16.612;2022-08-21T00:06:00;19.50;99.90
26599;DHT22;14240;51.064;16.612;2022-08-21T00:08:26;19.50;99.90
26599;DHT22;14240;51.064;16.612;2022-08-21T00:10:52;19.40;99.90
26599;DHT22;14240;51.064;16.612;2022-08-21T00:13:18;19.40;99.90
26599;DHT22;14240;51.064;16.612;2022-08-21T00:15:45;19.30;99.90
26599;DHT22;14240;51.064;16.612;2022-08-21T00:18:11;19.30;99.90
26599;DHT22;14240;51.064;16.612;2022-08-21T00:20:38;19.30;99.90
26599;DHT22;14240;51.064;16.612;2022-08-21T00:23:04;19.30;99.90
26599;DHT22;14240;51.064;16.612;2022-08-21T00:25:30;19.20;99.90
26599;DHT22;14240;51.064;16.612;2022-08-21T00:27:56;19.20;99.90
26599;DHT22;14240;51.064;16.612;2022-08-21T00:30:25;19.10;99.90
26599;DHT22;14240;51.064;16.612;2022-08-21T00:32:52;19.10;99.90
26599;DHT22;14240;51.064;16.612;2022-08-21T00:35:22;19.00;99.90
26599;DHT22;14240;51.064;16.612;2022-08-21T00:37:48;19.00;99.90
26599;DHT22;14240;51.064;16.612;2022-08-21T00:40:16;19.00;99.90
26599;DHT22;14240;51.064;16.612;2022-08-21T00:42:43;19.00;99.90
26599;DHT22;14240;51.064;16.612;2022-08-21T00:45:09;19.00;99.90
26599;DHT22;14240;51.064;16.612;2022-08-21T00:47:35;18.90;99.90
26599;DHT22;14240;51.064;16.612;2022-08-21T00:50:02;18.90;99.90
26599;DHT22;14240;51.064;16.612;2022-08-21T00:52:34;18.90;99.90
26599;DHT22;14240;51.064;16.612;2022-08-21T00:55:01;18.90;99.90
26599;DHT22;14240;51.064;16.612;2022-08-21T00:57:30;18.90;99.90
26599;DHT22;14240;51.064;16.612;2022-08-21T01:00:00;18.90;99.90
26599;DHT22;14240;51.064;16.612;2022-08-21T01:02:27;18.80;99.90
26599;DHT22;14240;51.064;16.612;2022-08-21T01:04:53;18.80;99.90
26599;DHT22;14240;51.064;16.612;2022-08-21T01:07:19;18.80;99.90
26599;DHT22;14240;51.064;16.612;2022-08-21T01:09:46;18.80;99.90
26599;DHT22;14240;51.064;16.612;2022-08-21T01:12:13;18.80;99.90
26599;DHT22;14240;51.064;16.612;2022-08-21T01:14:40;18.80;99.90
26599;DHT22;14240;51.064;16.612;2022-08-21T01:17:09;18.80;99.90
26599;DHT22;14240;51.064;16.612;2022-08-21T01:19:35;18.80;99.90
26599;DHT22;14240;51.064;16.612;2022-08-21T01:22:02;18.70;99.90
26599;DHT22;14240;51.064;16.612;2022-08-21T01:24:28;18.70;99.90
26599;DHT22;14240;51.064;16.612;2022-08-21T01:26:54;18.70;99.90
26599;DHT22;14240;51.064;16.612;2022-08-21T01:29:32;18.70;99.90
26599;DHT22;14240;51.064;16.612;2022-08-21T01:32:04;18.60;99.90
26599;DHT22;14240;51.064;16.612;2022-08-21T01:34:32;18.60;99.90
26599;DHT22;14240;51.064;16.612;2022-08-21T01:36:58;18.60;99.90
26599;DHT22;14240;51.064;16.612;2022-08-21T01:39:23;18.60;99.90
26599;DHT22;14240;51.064;16.612;2022-08-21T01:41:49;18.50;99.90
26599;DHT22;14240;51.064;16.612;2022-08-21T01:44:15;18.60;99.90
26599;DHT22;14240;51.064;16.612;2022-08-21T01:46:41;18.50;99.90
26599;DHT22;14240;51.064;16.612;2022-08-21T01:49:06;18.50;99.90
26599;DHT22;14240;51.064;16.612;2022-08-21T01:51:32;18.50;99.90
26599;DHT22;14240;51.064;16.612;2022-08-21T01:53:58;18.50;99.90
26599;DHT22;14240;51.064;16.612;2022-08-21T01:56:24;18.50;99.90
26599;DHT22;14240;51.064;16.612;2022-08-21T01:58:51;18.40;99.90
26599;DHT22;14240;51.064;16.612;2022-08-21T02:01:17;18.40;99.90
26599;DHT22;14240;51.064;16.612;2022-08-21T02:03:42;18.40;99.90
26599;DHT22;14240;51.064;16.612;2022-08-21T02:06:13;18.40;99.90
26599;DHT22;14240;51.064;16.612;2022-08-21T02:08:40;18.30;99.90
26599;DHT22;14240;51.064;16.612;2022-08-21T02:11:06;18.30;99.90
26599;DHT22;14240;51.064;16.612;2022-08-21T02:13:31;18.30;99.90
26599;DHT22;14240;51.064;16.612;2022-08-21T02:15:57;18.20;99.90
26599;DHT22;14240;51.064;16.612;2022-08-21T02:18:23;18.20;99.90
26599;DHT22;14240;51.064;16.612;2022-08-21T02:20:49;18.20;99.90
26599;DHT22;14240;51.064;16.612;2022-08-21T02:23:16;18.20;99.90
26599;DHT22;14240;51.064;16.612;2022-08-21T02:25:42;18.10;99.90
26599;DHT22;14240;51.064;16.612;2022-08-21T02:28:11;18.10;99.90
26599;DHT22;14240;51.064;16.612;2022-08-21T02:30:41;18.10;99.90
26599;DHT22;14240;51.064;16.612;2022-08-21T02:33:09;18.10;99.90
26599;DHT22;14240;51.064;16.612;2022-08-21T02:35:36;17.80;99.90
26599;DHT22;14240;51.064;16.612;2022-08-21T02:38:09;18.00;99.90
26599;DHT22;14240;51.064;16.612;2022-08-21T02:40:37;18.00;99.90
26599;DHT22;14240;51.064;16.612;2022-08-21T02:43:05;18.00;99.90
26599;DHT22;14240;51.064;16.612;2022-08-21T02:45:32;17.90;99.90
26599;DHT22;14240;51.064;16.612;2022-08-21T02:48:02;17.90;99.90
26599;DHT22;14240;51.064;16.612;2022-08-21T02:50:31;17.90;99.90
26599;DHT22;14240;51.064;16.612;2022-08-21T02:52:58;17.90;99.90
26599;DHT22;14240;51.064;16.612;2022-08-21T02:55:26;17.90;99.90
26599;DHT22;14240;51.064;16.612;2022-08-21T02:57:53;17.90;99.90
26599;DHT22;14240;51.064;16.612;2022-08-21T03:00:20;17.90;99.90
26599;DHT22;14240;51.064;16.612;2022-08-21T03:02:47;17.90;99.90
26599;DHT22;14240;51.064;16.612;2022-08-21T03:05:13;17.80;99.90
26599;DHT22;14240;51.064;16.612;2022-08-21T03:07:41;17.80;99.90
26599;DHT22;14240;51.064;16.612;2022-08-21T03:10:07;17.80;99.90
26599;DHT22;14240;51.064;16.612;2022-08-21T03:12:34;17.80;99.90
26599;DHT22;14240;51.064;16.612;2022-08-21T03:15:02;17.80;99.90
26599;DHT22;14240;51.064;16.612;2022-08-21T03:17:29;17.80;99.90
26599;DHT22;14240;51.064;16.612;2022-08-21T03:19:55;17.80;99.90
26599;DHT22;14240;51.064;16.612;2022-08-21T03:22:20;17.80;99.90
26599;DHT22;14240;51.064;16.612;2022-08-21T03:24:46;17.80;99.90
26599;DHT22;14240;51.064;16.612;2022-08-21T03:27:12;17.80;99.90
26599;DHT22;14240;51.064;16.612;2022-08-21T03:29:39;17.80;99.90
26599;DHT22;14240;51.064;16.612;2022-08-21T03:32:05;17.70;99.90
26599;DHT22;14240;51.064;16.612;2022-08-21T03:34:30;17.70;99.90
26599;DHT22;14240;51.064;16.612;2022-08-21T03:36:56;17.70;99.90
26599;DHT22;14240;51.064;16.612;2022-08-21T03:39:22;17.80;99.90
26599;DHT22;14240;51.064;16.612;2022-08-21T03:41:47;17.70;99.90
26599;DHT22;14240;51.064;16.612;2022-08-21T03:44:13;17.70;99.90
26599;DHT22;14240;51.064;16.612;2022-08-21T03:46:39;17.80;99.90
26599;DHT22;14240;51.064;16.612;2022-08-21T03:49:06;17.80;99.90
26599;DHT22;14240;51.064;16.612;2022-08-21T03:51:31;17.80;99.90
26599;DHT22;14240;51.064;16.612;2022-08-21T03:53:59;17.70;99.90
26599;DHT22;14240;51.064;16.612;2022-08-21T03:56:25;17.80;99.90
26599;DHT22;14240;51.064;16.612;2022-08-21T03:58:50;17.80;99.90
26599;DHT22;14240;51.064;16.612;2022-08-21T04:01:16;17.80;99.90
26599;DHT22;14240;51.064;16.612;2022-08-21T04:03:42;17.70;99.90
26599;DHT22;14240;51.064;16.612;2022-08-21T04:06:08;17.70;99.90
26599;DHT22;14240;51.064;16.612;2022-08-21T04:08:34;17.70;99.90
26599;DHT22;14240;51.064;16.612;2022-08-21T04:11:00;17.80;99.90
26599;DHT22;14240;51.064;16.612;2022-08-21T04:13:26;17.70;99.90
26599;DHT22;14240;51.064;16.612;2022-08-21T04:15:54;17.80;99.90
26599;DHT22;14240;51.064;16.612;2022-08-21T04:18:21;17.80;99.90
26599;DHT22;14240;51.064;16.612;2022-08-21T04:20:50;17.80;99.90
26599;DHT22;14240;51.064;16.612;2022-08-21T04:23:17;17.80;99.90
26599;DHT22;14240;51.064;16.612;2022-08-21T04:25:43;17.80;99.90
26599;DHT22;14240;51.064;16.612;2022-08-21T04:28:09;17.80;99.90
26599;DHT22;14240;51.064;16.612;2022-08-21T04:30:34;17.80;99.90
26599;DHT22;14240;51.064;16.612;2022-08-21T04:33:00;17.70;99.90
26599;DHT22;14240;51.064;16.612;2022-08-21T04:35:27;17.80;99.90
26599;DHT22;14240;51.064;16.612;2022-08-21T04:37:53;17.80;99.90
26599;DHT22;14240;51.064;16.612;2022-08-21T04:40:20;17.80;99.90
26599;DHT22;14240;51.064;16.612;2022-08-21T04:42:49;17.80;99.90
26599;DHT22;14240;51.064;16.612;2022-08-21T04:45:28;17.80;99.90
26599;DHT22;14240;51.064;16.612;2022-08-21T04:47:56;17.80;99.90
26599;DHT22;14240;51.064;16.612;2022-08-21T04:50:28;17.80;99.90
26599;DHT22;14240;51.064;16.612;2022-08-21T04:52:55;17.80;99.90
26599;DHT22;14240;51.064;16.612;2022-08-21T04:55:21;17.80;99.90
26599;DHT22;14240;51.064;16.612;2022-08-21T04:57:48;17.90;99.90
26599;DHT22;14240;51.064;16.612;2022-08-21T05:00:20;17.90;99.90
26599;DHT22;14240;51.064;16.612;2022-08-21T05:02:46;17.90;99.90
26599;DHT22;14240;51.064;16.612;2022-08-21T05:05:13;17.90;99.90
26599;DHT22;14240;51.064;16.612;2022-08-21T05:07:39;17.90;99.90
26599;DHT22;14240;51.064;16.612;2022-08-21T05:10:05;17.80;99.90
26599;DHT22;14240;51.064;16.612;2022-08-21T05:12:33;17.90;99.90
26599;DHT22;14240;51.064;16.612;2022-08-21T05:15:00;17.90;99.90
26599;DHT22;14240;51.064;16.612;2022-08-21T05:17:25;17.90;99.90
26599;DHT22;14240;51.064;16.612;2022-08-21T05:19:51;17.90;99.90
26599;DHT22;14240;51.064;16.612;2022-08-21T05:22:23;17.90;99.90
26599;DHT22;14240;51.064;16.612;2022-08-21T05:24:50;17.90;99.90
26599;DHT22;14240;51.064;16.612;2022-08-21T05:27:16;17.90;99.90
26599;DHT22;14240;51.064;16.612;2022-08-21T05:29:42;17.90;99.90
26599;DHT22;14240;51.064;16.612;2022-08-21T05:32:12;17.90;99.90
26599;DHT22;14240;51.064;16.612;2022-08-21T05:34:38;17.90;99.90
26599;DHT22;14240;51.064;16.612;2022-08-21T05:37:04;17.90;99.90
26599;DHT22;14240;51.064;16.612;2022-08-21T05:39:30;18.00;99.90
26599;DHT22;14240;51.064;16.612;2022-08-21T05:41:56;17.90;99.90
26599;DHT22;14240;51.064;16.612;2022-08-21T05:44:21;17.90;99.90
26599;DHT22;14240;51.064;16.612;2022-08-21T05:46:47;17.90;99.90
26599;DHT22;14240;51.064;16.612;2022-08-21T05:49:13;17.90;99.90
26599;DHT22;14240;51.064;16.612;2022-08-21T05:51:42;17.80;99.90
26599;DHT22;14240;51.064;16.612;2022-08-21T05:54:08;17.80;99.90
26599;DHT22;14240;51.064;16.612;2022-08-21T05:56:34;17.80;99.90
26599;DHT22;14240;51.064;16.612;2022-08-21T05:58:59;17.80;99.90
26599;DHT22;14240;51.064;16.612;2022-08-21T06:01:25;17.70;99.90
26599;DHT22;14240;51.064;16.612;2022-08-21T06:03:51;17.70;99.90
26599;DHT22;14240;51.064;16.612;2022-08-21T06:06:17;17.70;99.90
26599;DHT22;14240;51.064;16.612;2022-08-21T06:08:43;17.70;99.90
26599;DHT22;14240;51.064;16.612;2022-08-21T06:11:09;17.70;99.90
26599;DHT22;14240;51.064;16.612;2022-08-21T06:13:36;17.60;99.90
26599;DHT22;14240;51.064;16.612;2022-08-21T06:16:21;17.60;99.90
26599;DHT22;14240;51.064;16.612;2022-08-21T06:18:48;17.60;99.90
26599;DHT22;14240;51.064;16.612;2022-08-21T06:21:14;17.60;99.90
26599;DHT22;14240;51.064;16.612;2022-08-21T06:23:40;17.50;99.90
26599;DHT22;14240;51.064;16.612;2022-08-21T06:26:07;17.50;99.90
26599;DHT22;14240;51.064;16.612;2022-08-21T06:28:34;17.50;99.90
26599;DHT22;14240;51.064;16.612;2022-08-21T06:31:00;17.40;99.90
26599;DHT22;14240;51.064;16.612;2022-08-21T06:33:26;17.40;99.90
26599;DHT22;14240;51.064;16.612;2022-08-21T06:35:52;17.40;99.90
26599;DHT22;14240;51.064;16.612;2022-08-21T06:38:17;17.40;99.90
26599;DHT22;14240;51.064;16.612;2022-08-21T06:40:44;17.40;99.90
26599;DHT22;14240;51.064;16.612;2022-08-21T06:43:14;17.40;99.90
26599;DHT22;14240;51.064;16.612;2022-08-21T06:45:40;17.40;99.90
26599;DHT22;14240;51.064;16.612;2022-08-21T06:48:06;17.30;99.90
26599;DHT22;14240;51.064;16.612;2022-08-21T06:50:33;17.40;99.90
26599;DHT22;14240;51.064;16.612;2022-08-21T06:53:02;17.30;99.90
26599;DHT22;14240;51.064;16.612;2022-08-21T06:55:28;17.30;99.90
26599;DHT22;14240;51.064;16.612;2022-08-21T06:57:53;17.30;99.90
26599;DHT22;14240;51.064;16.612;2022-08-21T07:00:19;17.30;99.90
26599;DHT22;14240;51.064;16.612;2022-08-21T07:02:45;17.20;99.90
26599;DHT22;14240;51.064;16.612;2022-08-21T07:05:11;17.20;99.90
26599;DHT22;14240;51.064;16.612;2022-08-21T07:07:36;17.20;99.90
26599;DHT22;14240;51.064;16.612;2022-08-21T07:10:03;17.10;99.90
26599;DHT22;14240;51.064;16.612;2022-08-21T07:12:29;17.10;99.90
26599;DHT22;14240;51.064;16.612;2022-08-21T07:14:55;17.00;99.90
26599;DHT22;14240;51.064;16.612;2022-08-21T07:17:21;17.00;99.90
26599;DHT22;14240;51.064;16.612;2022-08-21T07:19:46;17.00;99.90
26599;DHT22;14240;51.064;16.612;2022-08-21T07:22:13;17.00;99.90
26599;DHT22;14240;51.064;16.612;2022-08-21T07:24:40;16.90;99.90
26599;DHT22;14240;51.064;16.612;2022-08-21T07:27:06;16.90;99.90
26599;DHT22;14240;51.064;16.612;2022-08-21T07:29:31;16.90;99.90
26599;DHT22;14240;51.064;16.612;2022-08-21T07:31:57;16.90;99.90
26599;DHT22;14240;51.064;16.612;2022-08-21T07:34:23;16.90;99.90
26599;DHT22;14240;51.064;16.612;2022-08-21T07:36:48;16.90;99.90
26599;DHT22;14240;51.064;16.612;2022-08-21T07:39:14;16.90;99.90
26599;DHT22;14240;51.064;16.612;2022-08-21T07:41:40;16.90;99.90
26599;DHT22;14240;51.064;16.612;2022-08-21T07:44:05;16.90;99.90
26599;DHT22;14240;51.064;16.612;2022-08-21T07:46:31;16.90;99.90
26599;DHT22;14240;51.064;16.612;2022-08-21T07:48:57;16.80;99.90
26599;DHT22;14240;51.064;16.612;2022-08-21T07:51:26;16.80;99.90
26599;DHT22;14240;51.064;16.612;2022-08-21T07:53:54;16.80;99.90
26599;DHT22;14240;51.064;16.612;2022-08-21T07:56:20;16.80;99.90
26599;DHT22;14240;51.064;16.612;2022-08-21T07:58:46;16.80;99.90
26599;DHT22;14240;51.064;16.612;2022-08-21T08:01:12;16.80;99.90
26599;DHT22;14240;51.064;16.612;2022-08-21T08:03:39;16.80;99.90
26599;DHT22;14240;51.064;16.612;2022-08-21T08:06:05;16.70;99.90
26599;DHT22;14240;51.064;16.612;2022-08-21T08:08:34;16.70;99.90
26599;DHT22;14240;51.064;16.612;2022-08-21T08:11:00;16.70;99.90
26599;DHT22;14240;51.064;16.612;2022-08-21T08:13:26;16.60;99.90
26599;DHT22;14240;51.064;16.612;2022-08-21T08:15:52;16.60;99.90
26599;DHT22;14240;51.064;16.612;2022-08-21T08:18:18;16.50;99.90
26599;DHT22;14240;51.064;16.612;2022-08-21T08:20:44;16.50;99.90
26599;DHT22;14240;51.064;16.612;2022-08-21T08:23:11;16.50;99.90
26599;DHT22;14240;51.064;16.612;2022-08-21T08:25:37;16.50;99.90
26599;DHT22;14240;51.064;16.612;2022-08-21T08:28:04;16.50;99.90
26599;DHT22;14240;51.064;16.612;2022-08-21T08:30:30;16.50;99.90
26599;DHT22;14240;51.064;16.612;2022-08-21T08:32:55;16.40;99.90
26599;DHT22;14240;51.064;16.612;2022-08-21T08:35:22;16.40;99.90
26599;DHT22;14240;51.064;16.612;2022-08-21T08:37:48;16.30;99.90
26599;DHT22;14240;51.064;16.612;2022-08-21T08:41:05;16.20;99.90
26599;DHT22;14240;51.064;16.612;2022-08-21T08:43:11;16.20;99.90
26599;DHT22;14240;51.064;16.612;2022-08-21T08:45:39;16.20;99.90
26599;DHT22;14240;51.064;16.612;2022-08-21T08:48:10;16.20;99.90
26599;DHT22;14240;51.064;16.612;2022-08-21T08:50:46;16.20;99.90
26599;DHT22;14240;51.064;16.612;2022-08-21T08:53:22;16.20;99.90
26599;DHT22;14240;51.064;16.612;2022-08-21T08:55:51;16.20;99.90
26599;DHT22;14240;51.064;16.612;2022-08-21T08:58:33;16.20;99.90
26599;DHT22;14240;51.064;16.612;2022-08-21T09:01:00;16.20;99.90
26599;DHT22;14240;51.064;16.612;2022-08-21T09:03:27;16.30;99.90
26599;DHT22;14240;51.064;16.612;2022-08-21T09:11:59;16.40;99.90
26599;DHT22;14240;51.064;16.612;2022-08-21T09:15:01;16.50;99.90
26599;DHT22;14240;51.064;16.612;2022-08-21T09:23:10;16.60;99.90
26599;DHT22;14240;51.064;16.612;2022-08-21T09:26:12;16.60;99.90
26599;DHT22;14240;51.064;16.612;2022-08-21T09:28:38;16.70;99.90
26599;DHT22;14240;51.064;16.612;2022-08-21T09:31:21;16.70;99.90
26599;DHT22;14240;51.064;16.612;2022-08-21T09:33:47;16.80;99.90
26599;DHT22;14240;51.064;16.612;2022-08-21T09:36:26;16.80;99.90
26599;DHT22;14240;51.064;16.612;2022-08-21T09:38:54;16.90;99.90
26599;DHT22;14240;51.064;16.612;2022-08-21T09:41:30;16.90;99.90
26599;DHT22;14240;51.064;16.612;2022-08-21T09:43:57;16.90;99.90
26599;DHT22;14240;51.064;16.612;2022-08-21T09:46:25;16.90;99.90
26599;DHT22;14240;51.064;16.612;2022-08-21T09:48:55;16.90;99.90
26599;DHT22;14240;51.064;16.612;2022-08-21T09:51:31;17.00;99.90
26599;DHT22;14240;51.064;16.612;2022-08-21T09:54:15;17.00;99.90
26599;DHT22;14240;51.064;16.612;2022-08-21T09:56:55;17.00;99.90
26599;DHT22;14240;51.064;16.612;2022-08-21T09:59:40;17.00;99.90
26599;DHT22;14240;51.064;16.612;2022-08-21T10:02:32;17.00;99.90
26599;DHT22;14240;51.064;16.612;2022-08-21T10:05:25;17.00;99.90
26599;DHT22;14240;51.064;16.612;2022-08-21T10:07:49;17.00;99.90
26599;DHT22;14240;51.064;16.612;2022-08-21T10:18:31;16.90;99.90
26599;DHT22;14240;51.064;16.612;2022-08-21T10:27:06;17.00;99.90
26599;DHT22;14240;51.064;16.612;2022-08-21T10:35:13;17.10;99.90
26599;DHT22;14240;51.064;16.612;2022-08-21T10:49:29;17.20;99.90
26599;DHT22;14240;51.064;16.612;2022-08-21T10:54:38;17.20;99.90
26599;DHT22;14240;51.064;16.612;2022-08-21T10:57:16;17.30;99.90
26599;DHT22;14240;51.064;16.612;2022-08-21T11:02:21;17.30;99.90
26599;DHT22;14240;51.064;16.612;2022-08-21T11:05:02;17.30;99.90
26599;DHT22;14240;51.064;16.612;2022-08-21T11:07:39;17.30;99.90
26599;DHT22;14240;51.064;16.612;2022-08-21T11:10:35;17.40;99.90
26599;DHT22;14240;51.064;16.612;2022-08-21T11:13:45;17.40;99.90
26599;DHT22;14240;51.064;16.612;2022-08-21T11:16:05;17.00;99.90
26599;DHT22;14240;51.064;16.612;2022-08-21T11:18:34;17.50;99.90
26599;DHT22;14240;51.064;16.612;2022-08-21T11:26:44;17.60;99.90
26599;DHT22;14240;51.064;16.612;2022-08-21T11:29:38;17.60;99.90
26599;DHT22;14240;51.064;16.612;2022-08-21T11:32:21;17.60;99.90
26599;DHT22;14240;51.064;16.612;2022-08-21T11:38:05;17.80;99.90
26599;DHT22;14240;51.064;16.612;2022-08-21T11:41:08;17.80;99.90
26599;DHT22;14240;51.064;16.612;2022-08-21T11:43:42;17.90;99.90
26599;DHT22;14240;51.064;16.612;2022-08-21T11:51:04;18.00;99.90
26599;DHT22;14240;51.064;16.612;2022-08-21T11:53:39;18.00;99.90
26599;DHT22;14240;51.064;16.612;2022-08-21T11:56:21;18.00;99.90
26599;DHT22;14240;51.064;16.612;2022-08-21T11:58:53;18.10;99.90
26599;DHT22;14240;51.064;16.612;2022-08-21T12:01:32;18.00;99.90
26599;DHT22;14240;51.064;16.612;2022-08-21T12:04:04;18.10;99.90
26599;DHT22;14240;51.064;16.612;2022-08-21T12:06:40;18.10;99.90
26599;DHT22;14240;51.064;16.612;2022-08-21T12:09:51;18.10;99.90
26599;DHT22;14240;51.064;16.612;2022-08-21T12:12:13;18.20;99.90
26599;DHT22;14240;51.064;16.612;2022-08-21T12:14:49;18.20;99.90
26599;DHT22;14240;51.064;16.612;2022-08-21T12:17:24;18.20;99.90
26599;DHT22;14240;51.064;16.612;2022-08-21T12:20:15;18.20;99.90
26599;DHT22;14240;51.064;16.612;2022-08-21T12:22:49;18.30;99.90
26599;DHT22;14240;51.064;16.612;2022-08-21T12:25:18;18.30;99.90
26599;DHT22;14240;51.064;16.612;2022-08-21T12:27:51;18.30;99.90
26599;DHT22;14240;51.064;16.612;2022-08-21T12:33:17;18.30;99.90
26599;DHT22;14240;51.064;16.612;2022-08-21T12:35:45;18.30;99.90
26599;DHT22;14240;51.064;16.612;2022-08-21T12:38:29;18.30;99.90
26599;DHT22;14240;51.064;16.612;2022-08-21T12:41:00;18.30;99.90
26599;DHT22;14240;51.064;16.612;2022-08-21T12:43:38;18.30;99.90
26599;DHT22;14240;51.064;16.612;2022-08-21T12:46:05;18.30;99.90
26599;DHT22;14240;51.064;16.612;2022-08-21T12:48:57;18.30;99.90
26599;DHT22;14240;51.064;16.612;2022-08-21T12:54:30;18.40;99.90
26599;DHT22;14240;51.064;16.612;2022-08-21T12:57:07;18.40;99.90
26599;DHT22;14240;51.064;16.612;2022-08-21T12:59:38;18.40;99.90
26599;DHT22;14240;51.064;16.612;2022-08-21T13:02:18;18.40;99.90
26599;DHT22;14240;51.064;16.612;2022-08-21T13:04:46;18.50;99.90
26599;DHT22;14240;51.064;16.612;2022-08-21T13:07:16;18.50;99.90
26599;DHT22;14240;51.064;16.612;2022-08-21T13:09:52;18.50;99.90
26599;DHT22;14240;51.064;16.612;2022-08-21T13:12:20;18.60;99.90
26599;DHT22;14240;51.064;16.612;2022-08-21T13:14:48;18.60;99.90
26599;DHT22;14240;51.064;16.612;2022-08-21T13:17:20;18.70;99.90
26599;DHT22;14240;51.064;16.612;2022-08-21T13:20:42;18.70;99.90
26599;DHT22;14240;51.064;16.612;2022-08-21T13:22:43;18.80;99.90
26599;DHT22;14240;51.064;16.612;2022-08-21T13:25:13;18.80;99.90
26599;DHT22;14240;51.064;16.612;2022-08-21T13:27:39;18.80;99.90
26599;DHT22;14240;51.064;16.612;2022-08-21T13:30:17;18.80;99.90
26599;DHT22;14240;51.064;16.612;2022-08-21T13:32:46;18.80;99.90
26599;DHT22;14240;51.064;16.612;2022-08-21T13:35:24;18.90;99.90
26599;DHT22;14240;51.064;16.612;2022-08-21T13:37:51;18.90;99.90
26599;DHT22;14240;51.064;16.612;2022-08-21T13:40:31;18.90;99.90
26599;DHT22;14240;51.064;16.612;2022-08-21T13:42:59;18.90;99.90
26599;DHT22;14240;51.064;16.612;2022-08-21T13:45:30;18.90;99.90
26599;DHT22;14240;51.064;16.612;2022-08-21T13:48:00;18.90;99.90
26599;DHT22;14240;51.064;16.612;2022-08-21T13:50:26;18.90;99.90
26599;DHT22;14240;51.064;16.612;2022-08-21T13:52:59;19.00;99.90
26599;DHT22;14240;51.064;16.612;2022-08-21T13:55:25;19.00;99.90
26599;DHT22;14240;51.064;16.612;2022-08-21T13:58:01;19.00;99.90
26599;DHT22;14240;51.064;16.612;2022-08-21T14:00:30;19.00;99.90
26599;DHT22;14240;51.064;16.612;2022-08-21T14:03:07;19.00;99.90
26599;DHT22;14240;51.064;16.612;2022-08-21T14:05:38;19.00;99.90
26599;DHT22;14240;51.064;16.612;2022-08-21T14:08:15;19.00;99.90
26599;DHT22;14240;51.064;16.612;2022-08-21T14:10:49;19.00;99.90
26599;DHT22;14240;51.064;16.612;2022-08-21T14:16:01;19.00;99.90
26599;DHT22;14240;51.064;16.612;2022-08-21T14:18:28;19.00;99.90
26599;DHT22;14240;51.064;16.612;2022-08-21T14:21:09;19.00;99.90
26599;DHT22;14240;51.064;16.612;2022-08-21T14:23:35;18.90;99.90
26599;DHT22;14240;51.064;16.612;2022-08-21T14:26:04;18.90;99.90
26599;DHT22;14240;51.064;16.612;2022-08-21T14:28:33;18.90;99.90
26599;DHT22;14240;51.064;16.612;2022-08-21T14:31:15;18.90;99.90
26599;DHT22;14240;51.064;16.612;2022-08-21T14:33:42;18.90;99.90
26599;DHT22;14240;51.064;16.612;2022-08-21T14:36:08;19.00;99.90
26599;DHT22;14240;51.064;16.612;2022-08-21T14:38:36;19.00;99.90
26599;DHT22;14240;51.064;16.612;2022-08-21T14:41:23;19.00;99.90
26599;DHT22;14240;51.064;16.612;2022-08-21T14:43:50;18.90;99.90
26599;DHT22;14240;51.064;16.612;2022-08-21T14:46:27;18.90;99.90
26599;DHT22;14240;51.064;16.612;2022-08-21T14:48:54;18.90;99.90
26599;DHT22;14240;51.064;16.612;2022-08-21T14:51:19;18.90;99.90
26599;DHT22;14240;51.064;16.612;2022-08-21T14:53:46;18.90;99.90
26599;DHT22;14240;51.064;16.612;2022-08-21T14:56:12;18.90;99.90
26599;DHT22;14240;51.064;16.612;2022-08-21T14:58:44;18.80;99.90
26599;DHT22;14240;51.064;16.612;2022-08-21T15:01:12;18.80;99.90
26599;DHT22;14240;51.064;16.612;2022-08-21T15:03:39;18.80;99.90
26599;DHT22;14240;51.064;16.612;2022-08-21T15:06:06;18.80;99.90
26599;DHT22;14240;51.064;16.612;2022-08-21T15:08:32;18.80;99.90
26599;DHT22;14240;51.064;16.612;2022-08-21T15:11:00;18.80;99.90
26599;DHT22;14240;51.064;16.612;2022-08-21T15:13:27;18.80;99.90
26599;DHT22;14240;51.064;16.612;2022-08-21T15:15:53;18.80;99.90
26599;DHT22;14240;51.064;16.612;2022-08-21T15:18:23;18.70;99.90
26599;DHT22;14240;51.064;16.612;2022-08-21T15:20:50;18.80;99.90
26599;DHT22;14240;51.064;16.612;2022-08-21T15:23:17;18.80;99.90
26599;DHT22;14240;51.064;16.612;2022-08-21T15:25:45;18.90;99.90
26599;DHT22;14240;51.064;16.612;2022-08-21T15:28:12;18.80;99.90
26599;DHT22;14240;51.064;16.612;2022-08-21T15:30:40;18.90;99.90
26599;DHT22;14240;51.064;16.612;2022-08-21T15:33:06;18.90;99.90
26599;DHT22;14240;51.064;16.612;2022-08-21T15:35:32;18.90;99.90
26599;DHT22;14240;51.064;16.612;2022-08-21T15:37:58;18.90;99.90
26599;DHT22;14240;51.064;16.612;2022-08-21T15:40:25;18.90;99.90
26599;DHT22;14240;51.064;16.612;2022-08-21T15:42:57;18.90;99.90
26599;DHT22;14240;51.064;16.612;2022-08-21T15:45:23;18.90;99.90
26599;DHT22;14240;51.064;16.612;2022-08-21T15:47:50;18.90;99.90
26599;DHT22;14240;51.064;16.612;2022-08-21T15:50:16;18.90;99.90
26599;DHT22;14240;51.064;16.612;2022-08-21T15:52:42;18.90;99.90
26599;DHT22;14240;51.064;16.612;2022-08-21T15:55:09;18.90;99.90
26599;DHT22;14240;51.064;16.612;2022-08-21T15:57:35;18.90;99.90
26599;DHT22;14240;51.064;16.612;2022-08-21T16:00:18;18.90;99.90
26599;DHT22;14240;51.064;16.612;2022-08-21T16:02:48;18.90;99.90
26599;DHT22;14240;51.064;16.612;2022-08-21T16:05:16;18.90;99.90
26599;DHT22;14240;51.064;16.612;2022-08-21T16:07:44;18.90;99.90
26599;DHT22;14240;51.064;16.612;2022-08-21T16:10:10;18.90;99.90
26599;DHT22;14240;51.064;16.612;2022-08-21T16:12:44;18.90;99.90
26599;DHT22;14240;51.064;16.612;2022-08-21T16:15:13;18.90;99.90
26599;DHT22;14240;51.064;16.612;2022-08-21T16:17:42;18.90;99.90
26599;DHT22;14240;51.064;16.612;2022-08-21T16:20:12;18.90;99.90
26599;DHT22;14240;51.064;16.612;2022-08-21T16:22:37;18.90;99.90
26599;DHT22;14240;51.064;16.612;2022-08-21T16:25:05;18.90;99.90
26599;DHT22;14240;51.064;16.612;2022-08-21T16:27:32;18.90;99.90
26599;DHT22;14240;51.064;16.612;2022-08-21T16:29:59;18.80;99.90
26599;DHT22;14240;51.064;16.612;2022-08-21T16:32:25;18.90;99.90
26599;DHT22;14240;51.064;16.612;2022-08-21T16:34:51;18.90;99.90
26599;DHT22;14240;51.064;16.612;2022-08-21T16:37:17;18.90;99.90
26599;DHT22;14240;51.064;16.612;2022-08-21T16:39:43;18.90;99.90